Time;durP1;ratioP1;P1;durP2;ratioP2;P2;SDS_P1;SDS_P2;PMS_P1;PMS_P2;Temp;Humidity;BMP_temperature;BMP_pressure;BME280_temperature;BME280_humidity;BME280_pressure;Samples;Min_cycle;Max_cycle;Signal;HPM_P1;HPM_P2
2021/09/05 00:01:48;;;;;;;14.88;11.77;;;23.60;39.20;;;;;;5091590;28;20154;-62
2021/09/05 00:04:13;;;;;;;15.70;13.60;;;23.60;39.20;;;;;;5093651;28;20058;-63
2021/09/05 00:06:39;;;;;;;11.07;9.10;;;23.60;39.60;;;;;;5073242;28;20036;-63
2021/09/05 00:09:05;;;;;;;14.63;13.13;;;23.60;39.30;;;;;;5081090;28;20028;-62
2021/09/05 00:11:31;;;;;;;10.45;7.88;;;23.60;39.30;;;;;;5060181;28;20561;-62
2021/09/05 00:13:57;;;;;;;17.02;11.15;;;23.60;39.60;;;;;;5073611;28;20017;-61
2021/09/05 00:16:23;;;;;;;13.05;10.52;;;23.60;39.70;;;;;;5080433;28;20040;-61
2021/09/05 00:18:49;;;;;;;9.30;7.45;;;23.60;39.90;;;;;;5091731;28;20031;-61
2021/09/05 00:21:15;;;;;;;13.55;9.82;;;23.60;39.80;;;;;;5092192;28;20028;-62
2021/09/05 00:23:41;;;;;;;23.98;13.60;;;23.40;40.10;;;;;;5092929;28;20055;-62
2021/09/05 00:26:07;;;;;;;7.82;6.72;;;23.40;40.30;;;;;;5092788;28;20127;-62
2021/09/05 00:28:33;;;;;;;16.42;11.07;;;23.30;40.70;;;;;;5093625;28;20065;-62
2021/09/05 00:31:00;;;;;;;11.27;9.43;;;23.30;41.10;;;;;;5090776;28;20497;-61
2021/09/05 00:33:25;;;;;;;23.83;15.60;;;23.30;41.50;;;;;;5092868;28;20487;-62
2021/09/05 00:35:51;;;;;;;15.68;11.27;;;23.30;41.80;;;;;;5091965;28;20034;-62
2021/09/05 00:38:16;;;;;;;11.70;10.15;;;23.30;41.90;;;;;;5073771;28;20027;-62
2021/09/05 00:40:42;;;;;;;13.50;9.80;;;23.20;41.90;;;;;;5092483;28;20119;-62
2021/09/05 00:43:07;;;;;;;12.82;8.63;;;23.20;42.40;;;;;;5092865;28;20024;-63
2021/09/05 00:45:33;;;;;;;10.75;7.30;;;23.20;42.50;;;;;;5093085;28;20112;-62
2021/09/05 00:48:00;;;;;;;8.45;6.70;;;23.10;42.60;;;;;;5092374;28;20024;-62
2021/09/05 00:50:27;;;;;;;14.15;9.02;;;23.10;42.50;;;;;;5092299;28;20046;-62
2021/09/05 00:52:53;;;;;;;10.15;7.32;;;23.10;42.40;;;;;;5091504;28;20107;-62
2021/09/05 00:55:19;;;;;;;11.27;8.73;;;23.10;42.70;;;;;;5073899;28;20533;-62
2021/09/05 00:57:46;;;;;;;10.18;8.65;;;23.20;45.50;;;;;;5091800;28;20032;-62
2021/09/05 01:00:13;;;;;;;12.00;10.05;;;23.10;50.30;;;;;;5092824;28;20028;-62
2021/09/05 01:02:39;;;;;;;10.55;8.15;;;;;;;;;;5092008;28;20102;-62
2021/09/05 01:05:05;;;;;;;11.98;10.20;;;23.10;61.70;;;;;;5090027;28;20111;-62
2021/09/05 01:07:32;;;;;;;8.48;7.50;;;23.10;49.50;;;;;;5091977;28;20048;-62
2021/09/05 01:09:59;;;;;;;9.73;7.70;;;23.00;47.50;;;;;;5074851;28;20034;-63
2021/09/05 01:12:26;;;;;;;10.35;9.25;;;23.00;45.90;;;;;;5092114;28;20063;-62
2021/09/05 01:14:52;;;;;;;10.10;8.45;;;22.90;42.20;;;;;;5082302;28;20033;-62
2021/09/05 01:17:17;;;;;;;7.45;6.35;;;22.90;42.50;;;;;;5089085;28;20412;-63
2021/09/05 01:19:43;;;;;;;10.77;7.22;;;22.90;42.30;;;;;;5096088;28;20028;-63
2021/09/05 01:22:09;;;;;;;15.07;10.30;;;22.90;42.30;;;;;;5094452;28;20059;-62
2021/09/05 01:24:34;;;;;;;13.93;10.38;;;22.90;42.30;;;;;;5095858;28;20039;-62
2021/09/05 01:27:00;;;;;;;11.07;8.00;;;22.90;42.20;;;;;;5078122;28;20050;-62
2021/09/05 01:29:25;;;;;;;7.25;6.20;;;22.80;42.40;;;;;;5096930;28;20039;-62
2021/09/05 01:31:54;;;;;;;8.65;6.45;;;22.80;42.40;;;;;;5096003;28;20066;-62
2021/09/05 01:34:23;;;;;;;7.65;6.05;;;22.80;42.60;;;;;;5096519;28;20024;-62
2021/09/05 01:36:51;;;;;;;7.15;5.70;;;22.80;42.70;;;;;;5095723;28;20501;-62
2021/09/05 01:39:18;;;;;;;7.70;6.00;;;22.80;42.50;;;;;;5096601;28;20482;-62
2021/09/05 01:41:45;;;;;;;7.30;5.47;;;22.80;42.70;;;;;;5095866;28;20096;-62
2021/09/05 01:44:18;;;;;;;6.78;5.70;;;22.80;42.60;;;;;;5078279;28;20016;-62
2021/09/05 01:46:43;;;;;;;6.82;5.15;;;22.80;42.60;;;;;;5078721;28;20552;-62
2021/09/05 01:49:09;;;;;;;6.63;5.90;;;22.80;42.50;;;;;;5096681;28;20044;-62
2021/09/05 01:51:35;;;;;;;9.52;6.35;;;22.80;42.60;;;;;;5094250;28;20028;-62
2021/09/05 01:54:02;;;;;;;6.55;5.47;;;22.80;42.50;;;;;;5096290;28;20105;-62
2021/09/05 01:56:28;;;;;;;7.22;5.65;;;22.70;42.50;;;;;;5094861;28;20642;-62
2021/09/05 01:58:58;;;;;;;6.00;5.40;;;22.80;42.40;;;;;;5096175;28;20020;-62
2021/09/05 02:01:25;;;;;;;6.10;5.50;;;22.80;42.20;;;;;;5094867;28;20020;-62
2021/09/05 02:03:51;;;;;;;7.65;5.85;;;22.80;42.50;;;;;;5095676;28;20024;-63
2021/09/05 02:06:17;;;;;;;7.25;5.30;;;22.80;42.30;;;;;;5095244;28;20103;-62
2021/09/05 02:08:42;;;;;;;6.43;5.78;;;22.80;42.60;;;;;;5096036;28;20044;-62
2021/09/05 02:11:08;;;;;;;6.60;5.88;;;22.80;43.70;;;;;;5094857;28;20509;-62
2021/09/05 02:13:33;;;;;;;8.93;6.70;;;22.80;43.30;;;;;;5095896;28;20058;-62
2021/09/05 02:15:59;;;;;;;5.90;5.30;;;22.70;43.30;;;;;;5096112;28;20109;-62
2021/09/05 02:18:25;;;;;;;7.97;5.72;;;22.70;43.70;;;;;;5094864;28;20093;-62
2021/09/05 02:20:50;;;;;;;8.25;6.18;;;22.70;43.70;;;;;;5083625;28;20031;-62
2021/09/05 02:23:16;;;;;;;7.38;6.45;;;22.70;43.80;;;;;;5093467;28;20488;-62
2021/09/05 02:25:42;;;;;;;6.53;5.78;;;22.70;44.00;;;;;;5077066;28;20028;-62
2021/09/05 02:28:07;;;;;;;7.25;5.57;;;22.70;44.00;;;;;;5093038;28;20028;-62
2021/09/05 02:30:34;;;;;;;8.95;6.30;;;22.80;44.50;;;;;;5095655;28;20032;-63
2021/09/05 02:33:01;;;;;;;8.50;5.35;;;22.80;44.70;;;;;;5094878;28;20476;-62
2021/09/05 02:35:27;;;;;;;7.07;6.22;;;22.70;44.80;;;;;;5095492;28;20115;-63
2021/09/05 02:37:52;;;;;;;7.70;6.82;;;22.70;45.50;;;;;;5094818;28;20122;-63
2021/09/05 02:40:18;;;;;;;6.63;5.70;;;22.70;45.30;;;;;;5095329;28;20066;-63
2021/09/05 02:42:43;;;;;;;6.20;5.60;;;22.70;45.20;;;;;;5094473;28;20504;-63
2021/09/05 02:45:10;;;;;;;8.40;6.70;;;22.70;45.30;;;;;;5095084;28;20030;-63
2021/09/05 02:47:35;;;;;;;8.15;5.93;;;22.80;45.50;;;;;;5075125;28;20028;-63
2021/09/05 02:50:01;;;;;;;9.07;6.90;;;22.80;45.60;;;;;;5095495;28;20038;-63
2021/09/05 02:52:27;;;;;;;6.63;5.88;;;22.80;45.30;;;;;;5091049;28;20106;-64
2021/09/05 02:54:52;;;;;;;9.25;6.47;;;22.80;45.30;;;;;;5092410;28;20032;-63
2021/09/05 02:57:18;;;;;;;7.32;5.70;;;22.80;45.70;;;;;;5094384;28;20040;-63
2021/09/05 02:59:44;;;;;;;6.65;6.05;;;22.80;45.50;;;;;;5076351;28;20036;-63
2021/09/05 03:02:09;;;;;;;6.95;6.25;;;22.80;45.60;;;;;;5094924;28;20056;-63
2021/09/05 03:04:35;;;;;;;9.32;6.85;;;22.70;45.60;;;;;;5092964;28;20474;-63
2021/09/05 03:07:00;;;;;;;7.72;6.28;;;22.70;45.60;;;;;;5094939;28;20024;-63
2021/09/05 03:09:26;;;;;;;8.77;6.28;;;22.70;45.90;;;;;;5094402;28;20028;-63
2021/09/05 03:11:52;;;;;;;8.15;6.25;;;22.70;45.80;;;;;;5094782;28;20021;-63
2021/09/05 03:14:18;;;;;;;6.70;6.00;;;22.80;45.80;;;;;;5075781;28;20024;-63
2021/09/05 03:16:43;;;;;;;7.65;6.25;;;22.70;45.80;;;;;;5093413;28;20047;-63
2021/09/05 03:19:10;;;;;;;9.07;6.47;;;22.70;45.80;;;;;;5092411;28;20056;-63
2021/09/05 03:21:36;;;;;;;6.85;6.25;;;22.60;46.00;;;;;;5093768;28;20107;-63
2021/09/05 03:24:02;;;;;;;7.80;6.20;;;22.60;46.00;;;;;;5073635;28;20113;-63
2021/09/05 03:26:27;;;;;;;6.88;6.00;;;22.60;45.80;;;;;;5076512;28;20028;-62
2021/09/05 03:28:53;;;;;;;8.40;6.05;;;22.60;46.20;;;;;;5094027;28;20058;-62
2021/09/05 03:31:18;;;;;;;6.90;6.20;;;22.50;46.20;;;;;;5094342;28;20028;-62
2021/09/05 03:33:44;;;;;;;8.57;5.90;;;22.60;46.60;;;;;;5093466;28;20501;-62
2021/09/05 03:36:09;;;;;;;7.43;6.55;;;22.50;46.50;;;;;;5077354;28;20490;-62
2021/09/05 03:38:35;;;;;;;7.18;6.18;;;22.50;46.40;;;;;;5073918;28;20029;-62
2021/09/05 03:41:01;;;;;;;10.25;6.43;;;22.50;46.70;;;;;;5093502;28;20024;-62
2021/09/05 03:43:26;;;;;;;7.13;6.43;;;22.50;46.50;;;;;;5093858;28;20032;-61
2021/09/05 03:45:52;;;;;;;7.22;6.55;;;22.50;46.50;;;;;;5075273;28;20028;-62
2021/09/05 03:48:17;;;;;;;7.35;6.00;;;22.40;46.60;;;;;;5093717;28;20028;-63
2021/09/05 03:50:43;;;;;;;7.78;6.43;;;22.50;46.90;;;;;;5092371;28;20035;-61
2021/09/05 03:53:09;;;;;;;7.65;6.85;;;22.40;47.00;;;;;;5093697;28;20373;-62
2021/09/05 03:55:34;;;;;;;6.88;6.28;;;22.40;46.60;;;;;;5074781;28;20036;-61
2021/09/05 03:58:02;;;;;;;7.72;6.43;;;22.40;47.10;;;;;;5094114;28;20035;-62
2021/09/05 04:00:28;;;;;;;8.05;6.82;;;22.40;47.20;;;;;;5092656;28;20126;-62
2021/09/05 04:02:53;;;;;;;7.93;6.32;;;22.30;47.70;;;;;;5075509;28;20072;-62
2021/09/05 04:05:19;;;;;;;7.78;6.75;;;22.30;47.50;;;;;;5093305;28;20036;-62
2021/09/05 04:10:47;;;;;;;7.13;6.43;;;22.30;47.90;;;;;;5049805;28;20033;-62
2021/09/05 04:13:14;;;;;;;9.18;6.80;;;22.30;48.00;;;;;;5084113;28;20040;-62
2021/09/05 04:15:40;;;;;;;7.45;6.50;;;22.30;48.20;;;;;;5093016;28;20028;-62
2021/09/05 04:18:06;;;;;;;6.78;6.07;;;22.30;48.30;;;;;;5093748;28;20032;-62
2021/09/05 04:20:31;;;;;;;9.43;6.53;;;22.20;48.10;;;;;;5091328;28;20035;-61
2021/09/05 04:22:58;;;;;;;7.80;7.03;;;22.20;48.30;;;;;;5092550;28;20093;-62
2021/09/05 04:25:24;;;;;;;9.20;6.40;;;22.10;48.50;;;;;;5074315;28;20436;-62
2021/09/05 04:27:49;;;;;;;7.28;6.57;;;22.10;48.80;;;;;;5093599;28;20020;-62
2021/09/05 04:30:15;;;;;;;8.10;6.38;;;22.10;48.90;;;;;;5092707;28;20024;-62
2021/09/05 04:32:42;;;;;;;8.57;6.47;;;22.10;48.80;;;;;;5075303;28;20024;-62
2021/09/05 04:35:08;;;;;;;8.68;6.88;;;22.20;48.60;;;;;;5092329;28;20035;-62
2021/09/05 04:37:34;;;;;;;9.40;6.63;;;22.10;49.00;;;;;;5093148;28;20036;-62
2021/09/05 04:39:59;;;;;;;7.95;6.75;;;22.10;48.70;;;;;;5092519;28;20028;-62
2021/09/05 04:42:25;;;;;;;7.32;6.60;;;22.10;49.10;;;;;;5093198;28;20055;-62
2021/09/05 04:44:52;;;;;;;7.75;6.40;;;22.10;49.40;;;;;;5092690;28;20370;-63
2021/09/05 04:47:18;;;;;;;8.90;6.82;;;22.10;49.50;;;;;;5093256;28;20053;-62
2021/09/05 04:49:44;;;;;;;8.00;6.57;;;22.10;50.10;;;;;;5091570;28;20070;-62
2021/09/05 04:52:09;;;;;;;9.18;6.22;;;22.00;50.00;;;;;;5092354;28;20388;-62
2021/09/05 04:54:35;;;;;;;9.02;6.65;;;22.00;49.70;;;;;;5092363;28;20032;-62
2021/09/05 04:57:01;;;;;;;7.25;6.53;;;22.00;50.00;;;;;;5074214;28;20521;-62
2021/09/05 04:59:26;;;;;;;8.50;6.30;;;22.00;49.40;;;;;;5091826;28;20034;-61
2021/09/05 05:01:52;;;;;;;7.93;6.38;;;22.00;49.00;;;;;;5093116;28;20419;-61
2021/09/05 05:04:17;;;;;;;10.70;6.47;;;22.10;48.90;;;;;;5091844;28;20095;-61
2021/09/05 05:06:44;;;;;;;7.72;5.85;;;22.10;48.40;;;;;;5091454;28;20040;-62
2021/09/05 05:09:10;;;;;;;7.20;5.78;;;22.10;48.30;;;;;;5091547;28;20377;-62
2021/09/05 05:11:37;;;;;;;9.75;6.05;;;22.10;48.30;;;;;;5092928;28;20028;-61
2021/09/05 05:14:03;;;;;;;8.88;6.93;;;22.10;47.90;;;;;;5092086;28;20028;-61
2021/09/05 05:16:28;;;;;;;9.18;6.13;;;22.10;48.10;;;;;;5092589;28;20032;-62
2021/09/05 05:18:54;;;;;;;7.35;6.43;;;22.20;47.80;;;;;;5088603;28;20107;-62
2021/09/05 05:21:20;;;;;;;6.55;5.95;;;22.10;47.90;;;;;;5071885;28;20386;-62
2021/09/05 05:23:45;;;;;;;9.88;7.35;;;22.20;47.80;;;;;;5091931;28;20020;-62
2021/09/05 05:26:11;;;;;;;7.00;6.38;;;22.20;47.90;;;;;;5073628;28;20446;-62
2021/09/05 05:28:36;;;;;;;6.78;6.03;;;22.20;47.90;;;;;;5092611;28;20024;-62
2021/09/05 05:31:02;;;;;;;10.35;6.88;;;22.20;47.60;;;;;;5091911;28;20028;-62
2021/09/05 05:33:28;;;;;;;9.13;6.60;;;22.20;47.70;;;;;;5092191;28;20128;-62
2021/09/05 05:35:53;;;;;;;10.00;6.95;;;22.20;47.70;;;;;;5091426;28;20040;-62
2021/09/05 05:38:19;;;;;;;7.95;6.40;;;22.20;47.60;;;;;;5092815;28;20107;-62
2021/09/05 05:40:44;;;;;;;8.63;6.22;;;22.20;47.40;;;;;;5091819;28;20531;-62
2021/09/05 05:43:10;;;;;;;7.72;6.57;;;22.20;47.60;;;;;;5093055;28;20024;-61
2021/09/05 05:45:36;;;;;;;7.00;6.30;;;22.30;47.60;;;;;;5091097;28;20124;-61
2021/09/05 05:48:01;;;;;;;10.23;6.45;;;22.30;47.70;;;;;;5073359;28;20032;-62
2021/09/05 05:50:27;;;;;;;7.35;6.57;;;22.20;47.90;;;;;;5073233;28;20033;-62
2021/09/05 05:52:53;;;;;;;10.77;6.15;;;22.30;47.90;;;;;;5092380;28;20032;-62
2021/09/05 05:55:19;;;;;;;9.10;6.55;;;22.30;47.80;;;;;;5091148;28;20474;-61
2021/09/05 05:57:45;;;;;;;10.20;6.68;;;22.30;48.00;;;;;;5091928;28;20028;-61
2021/09/05 06:00:12;;;;;;;8.25;6.32;;;22.30;48.00;;;;;;5091552;28;20074;-61
2021/09/05 06:02:37;;;;;;;8.60;6.72;;;22.40;47.90;;;;;;5092613;28;20098;-61
2021/09/05 06:05:04;;;;;;;8.73;5.63;;;22.40;47.80;;;;;;5094408;28;20028;-62
2021/09/05 06:07:29;;;;;;;7.28;6.35;;;22.40;47.50;;;;;;5095917;28;20028;-62
2021/09/05 06:09:55;;;;;;;9.30;6.38;;;22.40;47.40;;;;;;5095018;28;20035;-61
2021/09/05 06:12:21;;;;;;;7.82;6.20;;;22.40;47.90;;;;;;5077464;28;20115;-62
2021/09/05 06:14:46;;;;;;;8.75;6.30;;;22.40;48.00;;;;;;5095361;28;20024;-61
2021/09/05 06:17:12;;;;;;;6.78;5.72;;;22.40;48.00;;;;;;5076906;28;20381;-62
2021/09/05 06:19:38;;;;;;;7.85;6.28;;;22.40;47.90;;;;;;5094739;28;20059;-62
2021/09/05 06:22:04;;;;;;;6.53;5.93;;;22.40;48.20;;;;;;5095767;28;20059;-61
2021/09/05 06:24:30;;;;;;;9.25;6.15;;;22.40;48.30;;;;;;5094350;28;20098;-62
2021/09/05 06:26:56;;;;;;;7.05;6.35;;;22.50;47.90;;;;;;5077422;28;20098;-62
2021/09/05 06:29:22;;;;;;;6.65;5.90;;;22.50;47.70;;;;;;5095317;28;20032;-62
2021/09/05 06:31:47;;;;;;;8.35;6.65;;;22.60;47.30;;;;;;5075119;28;20035;-62
2021/09/05 06:34:13;;;;;;;7.57;5.78;;;22.60;47.00;;;;;;5082297;28;20501;-61
2021/09/05 06:36:38;;;;;;;7.78;6.75;;;22.60;46.80;;;;;;5094321;28;20036;-61
2021/09/05 06:39:04;;;;;;;7.68;6.47;;;22.60;46.40;;;;;;5095360;28;20048;-62
2021/09/05 06:41:30;;;;;;;8.40;6.40;;;22.60;46.20;;;;;;5094288;28;20032;-62
2021/09/05 06:43:58;;;;;;;9.75;6.50;;;22.70;46.50;;;;;;5077027;28;20020;-62
2021/09/05 06:46:24;;;;;;;6.40;5.80;;;22.70;46.70;;;;;;5092915;28;20028;-62
2021/09/05 06:48:50;;;;;;;8.60;6.40;;;22.70;46.80;;;;;;5094079;28;20088;-61
2021/09/05 06:51:16;;;;;;;7.38;6.68;;;22.80;46.50;;;;;;5094637;28;20104;-62
2021/09/05 06:53:42;;;;;;;8.18;6.22;;;22.80;46.00;;;;;;5077216;28;20023;-62
2021/09/05 06:56:09;;;;;;;8.23;6.28;;;22.90;45.70;;;;;;5093803;28;20040;-61
2021/09/05 06:58:35;;;;;;;7.25;6.07;;;22.90;45.70;;;;;;5058467;28;20474;-61
2021/09/05 07:01:01;;;;;;;8.82;6.18;;;23.00;45.50;;;;;;5093546;28;20036;-61
2021/09/05 07:03:27;;;;;;;9.82;6.68;;;23.00;45.60;;;;;;5095640;28;20461;-62
2021/09/05 07:05:52;;;;;;;7.05;6.32;;;23.10;45.10;;;;;;5093482;28;20024;-61
2021/09/05 07:08:19;;;;;;;8.68;6.50;;;23.10;45.00;;;;;;5094794;28;20044;-62
2021/09/05 07:10:45;;;;;;;7.75;6.63;;;23.10;44.60;;;;;;5093633;28;20110;-62
2021/09/05 07:13:10;;;;;;;7.22;6.53;;;23.10;44.40;;;;;;5094989;28;20062;-62
2021/09/05 07:15:36;;;;;;;6.45;5.85;;;23.00;44.40;;;;;;5094038;28;20067;-62
2021/09/05 07:18:03;;;;;;;8.50;6.43;;;23.10;44.60;;;;;;5074122;28;20066;-62
2021/09/05 07:20:28;;;;;;;8.80;5.88;;;23.10;45.00;;;;;;5093329;28;20024;-62
2021/09/05 07:22:58;;;;;;;7.90;6.10;;;23.10;43.80;;;;;;5094081;28;20024;-62
2021/09/05 07:25:26;;;;;;;9.15;6.78;;;23.10;43.80;;;;;;5070311;28;20020;-62
2021/09/05 07:27:52;;;;;;;8.88;6.53;;;23.10;43.70;;;;;;5073413;28;20063;-62
2021/09/05 07:30:17;;;;;;;7.65;5.93;;;23.20;43.30;;;;;;5060514;28;20074;-62
2021/09/05 07:32:43;;;;;;;7.75;6.63;;;23.10;43.20;;;;;;5094302;28;20028;-63
2021/09/05 07:35:09;;;;;;;7.30;6.10;;;23.20;43.80;;;;;;5093699;28;20112;-63
2021/09/05 07:37:36;;;;;;;7.47;6.00;;;23.10;44.10;;;;;;5094632;28;20036;-62
2021/09/05 07:40:02;;;;;;;7.57;6.63;;;23.20;43.70;;;;;;5093814;28;20500;-62
2021/09/05 07:42:27;;;;;;;9.32;6.50;;;23.30;44.00;;;;;;5093911;28;20130;-62
2021/09/05 07:44:53;;;;;;;7.90;6.63;;;23.20;43.70;;;;;;5092940;28;20516;-62
2021/09/05 07:47:19;;;;;;;8.13;6.70;;;23.30;44.20;;;;;;5093892;28;20043;-62
2021/09/05 07:49:45;;;;;;;8.20;6.80;;;23.30;44.30;;;;;;5093250;28;20374;-62
2021/09/05 07:52:11;;;;;;;9.88;7.10;;;23.40;44.50;;;;;;5093565;28;20032;-62
2021/09/05 07:54:36;;;;;;;9.68;6.60;;;23.40;44.20;;;;;;5093579;28;20040;-62
2021/09/05 07:57:02;;;;;;;10.00;6.28;;;23.50;44.60;;;;;;5092940;28;20105;-62
2021/09/05 07:59:28;;;;;;;6.78;6.07;;;23.50;44.60;;;;;;5093804;28;20031;-62
2021/09/05 08:01:53;;;;;;;8.50;6.55;;;23.50;43.90;;;;;;5074452;28;20057;-62
2021/09/05 08:04:19;;;;;;;8.50;6.43;;;23.60;43.40;;;;;;5094018;28;20024;-62
2021/09/05 08:06:45;;;;;;;6.80;6.05;;;23.50;42.30;;;;;;5093008;28;20051;-62
2021/09/05 08:09:11;;;;;;;7.40;6.30;;;23.50;42.50;;;;;;5093587;28;20081;-62
2021/09/05 08:11:37;;;;;;;7.55;5.10;;;23.50;41.90;;;;;;5092937;28;20128;-62
2021/09/05 08:14:02;;;;;;;6.72;5.88;;;23.60;41.30;;;;;;5094022;28;20028;-62
2021/09/05 08:16:28;;;;;;;7.82;6.32;;;23.70;41.50;;;;;;5088832;28;20481;-62
2021/09/05 08:18:53;;;;;;;10.05;5.85;;;23.60;40.80;;;;;;5089762;28;20082;-62
2021/09/05 08:21:19;;;;;;;8.73;6.07;;;23.60;41.20;;;;;;5072253;28;20036;-62
2021/09/05 08:23:45;;;;;;;7.47;6.65;;;23.60;40.80;;;;;;5090100;28;20073;-62
2021/09/05 08:26:12;;;;;;;8.32;6.05;;;23.70;41.20;;;;;;5089807;28;20485;-62
2021/09/05 08:28:39;;;;;;;8.15;5.95;;;23.80;41.40;;;;;;5090100;28;20035;-62
2021/09/05 08:31:04;;;;;;;7.00;6.18;;;23.80;40.60;;;;;;5089869;28;20497;-62
2021/09/05 08:33:31;;;;;;;7.20;6.32;;;23.90;40.40;;;;;;5071436;28;20031;-62
2021/09/05 08:35:56;;;;;;;7.97;6.18;;;23.80;40.40;;;;;;5090154;28;20024;-62
2021/09/05 08:38:22;;;;;;;6.75;6.10;;;23.90;40.60;;;;;;5090609;28;20035;-62
2021/09/05 08:40:49;;;;;;;6.57;5.95;;;23.90;40.40;;;;;;5090001;28;20061;-62
2021/09/05 08:43:20;;;;;;;8.55;6.07;;;24.00;40.00;;;;;;5091047;28;20045;-62
2021/09/05 08:45:48;;;;;;;6.68;6.07;;;24.10;39.90;;;;;;5089752;28;20450;-62
2021/09/05 08:48:16;;;;;;;9.68;5.80;;;24.20;39.90;;;;;;5071757;28;20032;-63
2021/09/05 08:50:43;;;;;;;7.25;5.80;;;24.20;39.40;;;;;;5089095;28;20024;-63
2021/09/05 08:53:09;;;;;;;9.95;7.00;;;24.10;39.00;;;;;;5089956;28;20052;-63
2021/09/05 08:55:35;;;;;;;8.63;6.38;;;24.10;39.40;;;;;;5088776;28;20044;-63
2021/09/05 08:58:01;;;;;;;7.57;6.05;;;24.20;39.50;;;;;;5072574;28;20118;-63
2021/09/05 09:00:27;;;;;;;7.65;6.03;;;24.30;39.50;;;;;;5088257;28;20034;-63
2021/09/05 09:02:55;;;;;;;6.80;6.20;;;24.30;39.60;;;;;;5090792;28;20027;-63
2021/09/05 09:05:40;;;;;;;10.10;7.28;;;24.40;39.30;;;;;;5086716;28;20466;-62
2021/09/05 09:08:09;;;;;;;12.93;11.73;;;24.60;38.60;;;;;;5070139;28;20028;-63
2021/09/05 09:11:01;;;;;;;7.68;6.95;;;24.60;37.40;;;;;;5055216;28;20424;-63
2021/09/05 09:13:38;;;;;;;9.30;6.70;;;24.80;38.10;;;;;;5089264;28;20113;-63
2021/09/05 09:16:09;;;;;;;12.07;10.93;;;24.90;37.60;;;;;;5089329;28;20059;-63
2021/09/05 09:18:36;;;;;;;10.57;9.43;;;24.90;37.40;;;;;;5068475;28;20153;-62
2021/09/05 09:21:05;;;;;;;8.02;6.80;;;25.10;37.50;;;;;;5088973;28;20063;-63
2021/09/05 09:23:36;;;;;;;8.07;5.63;;;25.10;37.80;;;;;;5089227;28;20110;-62
2021/09/05 09:26:03;;;;;;;7.40;6.65;;;25.20;36.60;;;;;;5069667;28;20108;-63
2021/09/05 09:28:44;;;;;;;6.45;5.78;;;25.10;36.70;;;;;;5090385;28;20032;-63
2021/09/05 09:31:26;;;;;;;6.85;5.55;;;25.20;35.60;;;;;;5089518;28;20107;-63
2021/09/05 09:33:53;;;;;;;6.95;5.18;;;25.30;35.80;;;;;;5092804;28;20073;-61
2021/09/05 09:36:22;;;;;;;7.97;5.25;;;25.20;35.90;;;;;;5091230;28;20032;-62
2021/09/05 09:38:59;;;;;;;10.30;5.78;;;25.20;35.60;;;;;;5059295;28;20024;-62
2021/09/05 09:41:32;;;;;;;8.82;6.07;;;25.30;35.40;;;;;;5095513;28;20032;-62
2021/09/05 09:44:00;;;;;;;6.97;6.27;;;25.30;35.80;;;;;;5096794;28;20016;-62
2021/09/05 09:46:28;;;;;;;7.78;5.28;;;25.30;35.40;;;;;;5093896;28;20348;-62
2021/09/05 09:48:56;;;;;;;5.78;5.00;;;25.40;34.60;;;;;;5096199;28;20024;-62
2021/09/05 09:51:22;;;;;;;6.20;5.70;;;25.50;35.00;;;;;;5095395;28;20444;-62
2021/09/05 09:53:49;;;;;;;7.85;5.53;;;25.60;35.10;;;;;;5096116;28;20020;-62
2021/09/05 09:56:16;;;;;;;8.45;5.70;;;25.60;34.30;;;;;;5094861;28;20048;-62
2021/09/05 09:58:46;;;;;;;6.13;5.53;;;25.60;33.80;;;;;;5096025;28;20044;-62
2021/09/05 10:01:15;;;;;;;5.68;5.05;;;25.70;33.30;;;;;;5094043;28;20416;-62
2021/09/05 10:03:42;;;;;;;7.70;4.95;;;25.80;33.50;;;;;;5096173;28;20028;-62
2021/09/05 10:06:09;;;;;;;8.05;5.78;;;25.90;33.20;;;;;;5094888;28;20095;-62
2021/09/05 10:08:38;;;;;;;7.03;5.95;;;26.00;32.70;;;;;;5077585;28;20028;-62
2021/09/05 10:11:04;;;;;;;9.15;5.97;;;26.00;33.10;;;;;;5088649;28;20032;-62
2021/09/05 10:13:36;;;;;;;7.65;5.63;;;26.10;32.90;;;;;;5095620;28;20066;-62
2021/09/05 10:16:01;;;;;;;7.10;5.60;;;26.10;32.20;;;;;;5093903;28;20031;-62
2021/09/05 10:18:28;;;;;;;8.20;5.65;;;26.20;32.70;;;;;;5095332;28;20048;-62
2021/09/05 10:20:57;;;;;;;8.90;5.82;;;26.20;32.90;;;;;;5095005;28;20032;-62
2021/09/05 10:23:31;;;;;;;6.80;6.10;;;26.20;33.00;;;;;;5088527;28;20071;-62
2021/09/05 10:26:11;;;;;;;9.50;6.78;;;26.30;32.30;;;;;;5094464;28;20054;-62
2021/09/05 10:28:43;;;;;;;10.70;7.47;;;26.30;32.30;;;;;;5095140;28;20024;-62
2021/09/05 10:31:10;;;;;;;9.30;6.35;;;26.40;31.70;;;;;;5094478;28;20359;-62
2021/09/05 10:33:38;;;;;;;8.15;6.43;;;26.50;32.20;;;;;;5095492;28;20018;-62
2021/09/05 10:36:06;;;;;;;7.97;5.90;;;26.60;32.20;;;;;;5094692;28;20042;-63
2021/09/05 10:38:33;;;;;;;8.38;5.63;;;26.60;31.70;;;;;;5094941;28;20043;-61
2021/09/05 10:41:00;;;;;;;9.35;6.53;;;26.70;30.90;;;;;;5076086;28;20035;-62
2021/09/05 10:43:48;;;;;;;9.82;5.57;;;26.80;29.80;;;;;;5077132;28;20032;-63
2021/09/05 10:46:18;;;;;;;6.57;5.80;;;26.80;29.70;;;;;;5092794;28;20036;-63
2021/09/05 10:49:00;;;;;;;6.40;5.03;;;26.80;29.70;;;;;;5095041;28;20020;-63
2021/09/05 10:51:33;;;;;;;8.38;6.05;;;26.80;29.20;;;;;;5094509;28;20032;-63
2021/09/05 10:54:14;;;;;;;7.47;6.45;;;26.90;29.40;;;;;;5095552;28;20051;-62
2021/09/05 10:56:44;;;;;;;6.18;5.63;;;27.10;29.30;;;;;;5094384;28;20086;-63
2021/09/05 10:59:12;;;;;;;10.30;6.97;;;27.20;29.60;;;;;;5094225;28;20028;-62
2021/09/05 11:01:46;;;;;;;6.47;5.78;;;27.10;29.60;;;;;;5076395;28;20028;-63
2021/09/05 11:04:12;;;;;;;7.25;6.55;;;27.10;29.70;;;;;;5094778;28;20028;-63
2021/09/05 11:06:41;;;;;;;7.82;5.93;;;27.10;29.80;;;;;;5093139;28;20497;-63
2021/09/05 11:09:20;;;;;;;6.10;5.47;;;27.30;29.40;;;;;;5091314;28;20496;-63
2021/09/05 11:11:57;;;;;;;7.28;6.32;;;27.40;28.90;;;;;;5093651;28;20020;-63
2021/09/05 11:14:40;;;;;;;6.82;6.15;;;27.60;28.60;;;;;;5092675;28;20426;-63
2021/09/05 11:17:08;;;;;;;10.52;9.52;;;27.70;28.80;;;;;;5084233;28;20054;-63
2021/09/05 11:19:46;;;;;;;13.00;10.55;;;27.70;28.80;;;;;;5089006;28;20100;-63
2021/09/05 11:22:22;;;;;;;9.05;8.05;;;27.80;28.30;;;;;;5073589;28;20029;-62
2021/09/05 11:25:05;;;;;;;10.07;8.65;;;27.70;28.30;;;;;;5088556;28;20123;-63
2021/09/05 11:27:30;;;;;;;9.20;6.53;;;28.00;27.80;;;;;;5090000;28;20465;-62
2021/09/05 11:30:03;;;;;;;8.43;7.57;;;28.10;27.90;;;;;;5087502;28;20035;-63
2021/09/05 11:32:28;;;;;;;14.23;12.82;;;28.10;28.00;;;;;;5089478;28;20034;-63
2021/09/05 11:34:56;;;;;;;11.13;9.20;;;28.20;28.20;;;;;;5087382;28;20110;-63
2021/09/05 11:37:30;;;;;;;8.75;7.93;;;28.40;28.10;;;;;;5089542;28;20044;-64
2021/09/05 11:39:56;;;;;;;9.27;7.65;;;28.50;27.00;;;;;;5088954;28;20059;-63
2021/09/05 11:42:22;;;;;;;8.60;7.25;;;28.70;26.90;;;;;;5089171;28;20050;-63
2021/09/05 11:44:48;;;;;;;8.98;8.18;;;28.80;26.60;;;;;;5088185;28;20024;-61
2021/09/05 11:47:19;;;;;;;7.55;6.82;;;28.70;26.30;;;;;;5089676;28;20040;-62
2021/09/05 11:49:53;;;;;;;8.85;6.63;;;29.00;26.30;;;;;;5088227;28;20576;-62
2021/09/05 11:52:20;;;;;;;9.18;6.25;;;29.30;25.60;;;;;;5051153;28;20024;-62
2021/09/05 11:54:48;;;;;;;9.10;6.65;;;29.40;25.60;;;;;;5081799;28;20401;-63
2021/09/05 11:57:13;;;;;;;9.20;7.57;;;30.40;24.50;;;;;;5089398;28;20052;-64
2021/09/05 11:59:40;;;;;;;13.45;6.82;;;;;;;;;;5062847;28;20069;-61
2021/09/05 12:02:05;;;;;;;8.23;7.50;;;32.20;48.80;;;;;;5090152;28;20042;-62
2021/09/05 12:04:31;;;;;;;10.90;7.53;;;31.80;36.30;;;;;;5089936;28;20099;-63
2021/09/05 12:07:00;;;;;;;10.45;8.07;;;31.90;26.20;;;;;;5090931;28;20437;-64
2021/09/05 12:09:31;;;;;;;9.13;8.00;;;32.40;30.90;;;;;;5088151;28;20104;-63
2021/09/05 12:11:57;;;;;;;8.20;7.32;;;32.90;51.90;;;;;;5087830;28;20072;-63
2021/09/05 12:14:37;;;;;;;9.15;8.05;;;32.90;44.00;;;;;;5089863;28;20028;-63
2021/09/05 12:17:19;;;;;;;8.88;7.63;;;34.20;50.10;;;;;;5090518;28;20036;-63
2021/09/05 12:20:00;;;;;;;8.27;7.10;;;34.20;17.70;;;;;;5089188;28;20513;-63
2021/09/05 12:22:38;;;;;;;9.05;7.93;;;35.30;17.20;;;;;;5090221;28;20111;-63
2021/09/05 12:25:15;;;;;;;8.10;7.40;;;36.40;16.60;;;;;;5088632;28;20455;-63
2021/09/05 12:27:55;;;;;;;9.90;8.93;;;37.00;15.30;;;;;;5090547;28;20024;-63
2021/09/05 12:30:35;;;;;;;10.23;8.93;;;37.40;14.70;;;;;;5088506;28;20104;-63
2021/09/05 12:33:20;;;;;;;8.70;7.90;;;37.10;14.50;;;;;;5090748;28;20040;-63
2021/09/05 12:35:47;;;;;;;8.18;7.57;;;38.50;24.40;;;;;;5087130;28;20040;-63
2021/09/05 12:38:14;;;;;;;8.30;7.60;;;;;;;;;;5088259;28;20077;-63
2021/09/05 12:40:45;;;;;;;8.35;7.53;;;41.70;18.60;;;;;;5069672;28;20104;-63
2021/09/05 12:43:12;;;;;;;10.02;7.70;;;42.20;10.00;;;;;;5088568;28;20054;-63
2021/09/05 12:45:49;;;;;;;9.23;8.30;;;42.80;31.30;;;;;;5089751;28;20036;-64
2021/09/05 12:48:18;;;;;;;8.88;7.90;;;43.10;10.40;;;;;;5090898;28;20039;-63
2021/09/05 12:50:44;;;;;;;8.70;8.00;;;43.30;26.10;;;;;;5088903;28;20089;-63